Time;durP1;ratioP1;P1;durP2;ratioP2;P2;SDS_P1;SDS_P2;PMS_P1;PMS_P2;Temp;Humidity;BMP_temperature;BMP_pressure;BME280_temperature;BME280_humidity;BME280_pressure;Samples;Min_cycle;Max_cycle;Signal;HPM_P1;HPM_P2
2020/12/23 00:01:27;;;;;;;11.98;1.98;;;;;;;6.62;81.46;100865.81;5003473;28;20065;-58
2020/12/23 00:03:56;;;;;;;17.98;2.90;;;;;;;6.69;82.26;100863.81;4998961;28;20058;-59
2020/12/23 00:06:33;;;;;;;20.00;2.35;;;;;;;6.94;82.29;100871.56;4994892;28;20100;-61
2020/12/23 00:09:02;;;;;;;25.60;7.55;;;;;;;7.06;81.37;100874.50;4999314;28;20054;-61
2020/12/23 00:11:28;;;;;;;19.25;2.08;;;;;;;7.00;81.14;100880.00;4993662;28;20137;-59
2020/12/23 00:13:55;;;;;;;19.67;2.97;;;;;;;6.83;81.66;100872.81;4996907;28;20046;-60
2020/12/23 00:16:22;;;;;;;16.40;2.50;;;;;;;7.00;81.11;100880.00;4997639;28;20058;-59
2020/12/23 00:18:49;;;;;;;14.43;2.25;;;;;;;7.04;80.64;100880.75;5002807;28;20068;-58
2020/12/23 00:21:15;;;;;;;16.98;2.90;;;;;;;6.95;81.32;100881.09;5009837;28;20057;-58
2020/12/23 00:23:42;;;;;;;12.43;2.47;;;;;;;6.90;81.02;100883.91;5009325;28;20057;-58
2020/12/23 00:26:09;;;;;;;16.38;3.72;;;;;;;6.90;81.50;100885.69;5011042;28;20054;-56
2020/12/23 00:28:36;;;;;;;10.02;2.10;;;;;;;6.94;81.56;100882.88;4999933;28;20076;-59
2020/12/23 00:31:03;;;;;;;19.02;2.85;;;;;;;6.90;80.10;100883.06;4998587;28;20072;-61
2020/12/23 00:33:29;;;;;;;15.95;2.50;;;;;;;6.87;80.58;100891.03;5004689;28;20054;-59
2020/12/23 00:35:56;;;;;;;12.45;2.35;;;;;;;6.79;80.81;100875.59;4999206;28;20053;-60
2020/12/23 00:38:23;;;;;;;19.65;2.75;;;;;;;6.85;81.78;100873.63;5001340;28;20062;-59
2020/12/23 00:40:50;;;;;;;16.00;2.85;;;;;;;6.96;81.64;100880.19;5009161;28;20112;-60
2020/12/23 00:43:16;;;;;;;12.65;2.33;;;;;;;7.05;80.64;100882.44;5006593;28;20523;-59
2020/12/23 00:45:43;;;;;;;15.70;2.55;;;;;;;7.06;80.34;100884.13;4995567;28;20050;-61
2020/12/23 00:48:10;;;;;;;14.90;2.28;;;;;;;6.91;80.49;100880.38;5004993;28;20511;-59
2020/12/23 00:50:37;;;;;;;13.27;1.90;;;;;;;6.95;79.96;100891.56;4997981;28;20061;-58
2020/12/23 00:53:03;;;;;;;14.77;1.92;;;;;;;6.85;80.26;100894.56;4983810;28;20064;-57
2020/12/23 00:55:31;;;;;;;14.25;3.20;;;;;;;6.88;80.35;100895.34;4997031;28;20141;-60
2020/12/23 00:57:58;;;;;;;14.45;2.70;;;;;;;6.93;81.27;100883.75;4992640;28;20066;-60
2020/12/23 01:00:25;;;;;;;18.42;2.63;;;;;;;6.96;80.30;100888.88;5008578;28;20046;-60
2020/12/23 01:02:52;;;;;;;18.75;2.72;;;;;;;6.94;81.56;100888.09;5007406;28;20144;-61
2020/12/23 01:05:18;;;;;;;13.48;2.67;;;;;;;7.00;80.96;100889.63;5003409;28;20058;-58
2020/12/23 01:07:45;;;;;;;14.15;2.38;;;;;;;6.95;81.58;100896.81;5008541;28;20061;-60
2020/12/23 01:10:12;;;;;;;12.60;2.35;;;;;;;7.03;81.04;100897.38;4994367;28;20114;-58
2020/12/23 01:12:39;;;;;;;9.30;1.75;;;;;;;7.00;81.07;100900.94;4999284;28;20576;-60
2020/12/23 01:15:05;;;;;;;15.70;2.55;;;;;;;6.98;82.09;100892.31;4993303;28;20679;-60
2020/12/23 01:17:32;;;;;;;13.48;2.63;;;;;;;7.02;81.22;100890.41;5003534;28;20081;-61
2020/12/23 01:19:59;;;;;;;12.45;2.13;;;;;;;7.03;81.08;100892.13;5009909;28;20572;-59
2020/12/23 01:22:26;;;;;;;12.57;2.42;;;;;;;7.08;80.96;100893.63;4989364;28;20409;-63
2020/12/23 01:24:52;;;;;;;11.93;2.22;;;;;;;7.00;80.14;100893.09;4996220;28;20058;-59
2020/12/23 01:27:19;;;;;;;16.20;3.30;;;;;;;6.95;81.25;100892.44;5003043;28;20062;-60
2020/12/23 01:29:46;;;;;;;10.52;2.03;;;;;;;6.93;80.29;100896.00;4994629;28;20073;-60
2020/12/23 01:32:13;;;;;;;15.45;2.22;;;;;;;6.85;81.69;100884.09;5005702;28;20596;-60
2020/12/23 01:34:39;;;;;;;19.38;4.47;;;;;;;6.76;80.89;100900.16;4992857;28;20168;-59
2020/12/23 01:37:06;;;;;;;11.85;1.83;;;;;;;6.85;80.95;100891.94;5003381;28;20050;-59
2020/12/23 01:39:33;;;;;;;12.55;2.30;;;;;;;6.91;80.08;100890.84;5004091;28;20526;-58
2020/12/23 01:42:00;;;;;;;17.25;2.55;;;;;;;6.80;81.46;100877.34;5006879;28;20442;-57
2020/12/23 01:44:26;;;;;;;17.08;2.45;;;;;;;6.97;81.23;100877.50;4997107;28;20062;-59
2020/12/23 01:46:53;;;;;;;17.85;2.97;;;;;;;6.79;81.28;100876.47;5006832;28;20053;-61
2020/12/23 01:49:20;;;;;;;11.32;2.40;;;;;;;6.76;80.72;100880.97;4988915;28;20046;-61
2020/12/23 01:51:47;;;;;;;15.68;2.35;;;;;;;6.82;80.95;100885.97;5006601;28;20062;-59
2020/12/23 01:54:16;;;;;;;20.35;4.68;;;;;;;6.81;79.82;100889.50;4997567;28;20217;-59
2020/12/23 01:56:43;;;;;;;14.48;2.75;;;;;;;6.86;79.71;100877.09;5007971;28;20069;-61
2020/12/23 01:59:10;;;;;;;18.23;2.08;;;;;;;6.93;80.24;100886.38;4990063;28;20056;-61
2020/12/23 02:01:48;;;;;;;12.38;2.15;;;;;;;6.81;80.36;100885.13;4997390;28;20053;-60
2020/12/23 02:04:20;;;;;;;10.45;1.88;;;;;;;6.67;80.37;100897.03;4999310;23;20053;-54
2020/12/23 02:06:47;;;;;;;14.13;2.15;;;;;;;6.71;80.14;100894.25;5001054;28;20049;-56
2020/12/23 02:09:15;;;;;;;17.98;2.75;;;;;;;6.71;80.32;100885.50;5013123;28;20141;-58
2020/12/23 02:11:41;;;;;;;11.82;2.28;;;;;;;7.09;80.57;100879.63;5012612;28;20054;-58
2020/12/23 02:14:08;;;;;;;11.32;2.22;;;;;;;7.07;79.97;100878.00;4987413;28;20088;-55
2020/12/23 02:16:35;;;;;;;15.00;2.00;;;;;;;6.91;79.59;100887.38;5006004;28;20449;-59
2020/12/23 02:19:01;;;;;;;10.25;2.17;;;;;;;6.90;81.36;100883.06;4998984;28;20050;-57
2020/12/23 02:21:28;;;;;;;16.92;2.80;;;;;;;6.82;80.05;100891.19;5005444;28;20081;-55
2020/12/23 02:23:55;;;;;;;17.17;2.08;;;;;;;6.97;79.62;100887.13;5001316;28;20403;-55
2020/12/23 02:26:22;;;;;;;17.38;2.42;;;;;;;6.87;79.23;100889.25;5003740;28;20077;-54
2020/12/23 02:28:48;;;;;;;17.02;3.33;;;;;;;6.84;78.56;100890.25;5005099;28;20124;-55
2020/12/23 02:31:15;;;;;;;13.70;2.30;;;;;;;6.78;79.53;100893.06;5009736;28;20064;-55
2020/12/23 02:33:42;;;;;;;16.38;2.63;;;;;;;7.02;79.83;100898.25;5003724;28;20057;-58
2020/12/23 02:36:09;;;;;;;13.30;1.95;;;;;;;7.03;79.16;100892.97;4984943;28;20434;-54
2020/12/23 02:38:36;;;;;;;11.98;2.58;;;;;;;7.06;77.62;100897.22;5005727;28;20490;-54
2020/12/23 02:41:02;;;;;;;15.50;2.95;;;;;;;7.06;78.00;100884.97;5010324;28;20062;-57
2020/12/23 02:43:29;;;;;;;16.23;2.53;;;;;;;7.07;78.02;100871.00;4981175;28;20565;-54
2020/12/23 02:45:56;;;;;;;15.55;2.03;;;;;;;6.99;78.60;100869.59;5010639;28;20069;-56
2020/12/23 02:48:23;;;;;;;22.42;2.15;;;;;;;6.97;76.95;100880.13;5007613;28;20081;-54
2020/12/23 02:50:50;;;;;;;19.83;2.67;;;;;;;7.10;79.22;100875.25;5010927;28;20415;-57
2020/12/23 02:53:17;;;;;;;21.38;2.15;;;;;;;6.90;78.49;100865.59;5001853;28;20399;-59
2020/12/23 02:55:43;;;;;;;10.77;2.05;;;;;;;6.96;77.99;100867.94;5011269;28;20125;-57
2020/12/23 02:58:10;;;;;;;22.55;2.30;;;;;;;7.08;76.89;100875.31;5006558;28;20554;-54
2020/12/23 03:00:37;;;;;;;18.92;2.08;;;;;;;7.16;77.31;100867.16;5025422;28;20049;-57
2020/12/23 03:03:04;;;;;;;17.40;3.15;;;;;;;6.99;75.66;100862.59;5006503;28;20061;-54
2020/12/23 03:05:31;;;;;;;17.98;2.55;;;;;;;6.85;76.38;100859.69;5010142;28;20461;-56
2020/12/23 03:07:58;;;;;;;20.73;2.50;;;;;;;6.74;77.65;100857.47;5007592;28;20054;-58
2020/12/23 03:10:24;;;;;;;19.48;2.75;;;;;;;7.00;77.86;100853.81;5008574;28;20050;-53
2020/12/23 03:12:51;;;;;;;23.77;2.17;;;;;;;6.76;77.91;100855.66;5004183;28;20054;-56
2020/12/23 03:15:18;;;;;;;8.50;1.80;;;;;;;6.65;78.07;100847.38;5005648;28;20419;-53
2020/12/23 03:17:44;;;;;;;10.02;2.15;;;;;;;6.60;78.14;100841.47;4990421;28;20124;-55
2020/12/23 03:20:11;;;;;;;12.52;2.53;;;;;;;6.53;77.96;100853.94;5004610;28;20100;-57
2020/12/23 03:22:38;;;;;;;17.52;2.13;;;;;;;6.53;77.32;100853.09;5004807;28;20168;-55
2020/12/23 03:25:04;;;;;;;18.50;2.42;;;;;;;6.51;77.36;100841.81;5004405;28;20065;-56
2020/12/23 03:27:32;;;;;;;12.75;2.75;;;;;;;6.97;79.02;100850.47;4990823;28;20081;-57
2020/12/23 03:29:58;;;;;;;21.48;3.15;;;;;;;6.92;76.77;100853.28;4982072;28;20045;-55
2020/12/23 03:32:25;;;;;;;13.52;2.35;;;;;;;6.96;76.61;100852.25;4989724;28;20065;-59
2020/12/23 03:34:52;;;;;;;16.45;2.47;;;;;;;7.22;77.42;100872.13;5005116;28;20581;-58
2020/12/23 03:37:18;;;;;;;17.63;2.65;;;;;;;6.95;77.81;100873.25;5008719;28;20377;-57
2020/12/23 03:39:45;;;;;;;16.88;2.30;;;;;;;6.83;76.86;100875.44;5007387;28;20046;-55
2020/12/23 03:42:12;;;;;;;19.48;2.78;;;;;;;7.02;78.96;100870.31;4990051;28;20141;-53
2020/12/23 03:44:38;;;;;;;22.23;1.92;;;;;;;7.00;77.78;100873.91;4988327;28;20054;-56
2020/12/23 03:47:05;;;;;;;11.73;2.50;;;;;;;6.80;77.66;100874.72;5008731;28;20077;-57
2020/12/23 03:49:32;;;;;;;14.85;2.70;;;;;;;6.71;77.74;100882.91;5002646;28;21122;-55
2020/12/23 03:51:59;;;;;;;13.45;2.03;;;;;;;6.65;76.92;100881.38;5006254;28;20053;-58
2020/12/23 03:54:25;;;;;;;17.33;2.35;;;;;;;6.68;77.95;100878.66;4983831;28;20054;-58
2020/12/23 03:56:52;;;;;;;16.30;2.50;;;;;;;6.72;78.23;100876.78;5008562;28;20468;-58
2020/12/23 03:59:19;;;;;;;21.67;2.22;;;;;;;6.75;77.07;100884.50;4989015;28;20054;-57
2020/12/23 04:01:45;;;;;;;17.15;2.15;;;;;;;6.74;79.25;100878.41;4993342;28;20053;-59
2020/12/23 04:04:12;;;;;;;12.95;2.10;;;;;;;6.63;78.25;100874.53;5008189;28;20073;-57
2020/12/23 04:06:39;;;;;;;13.77;2.00;;;;;;;6.59;77.93;100885.09;5008551;28;20057;-59
2020/12/23 04:09:06;;;;;;;16.27;2.50;;;;;;;6.71;76.29;100886.41;5004043;28;20058;-58
2020/12/23 04:11:32;;;;;;;15.98;2.42;;;;;;;6.75;76.52;100882.72;5000230;28;20050;-56
2020/12/23 04:14:01;;;;;;;16.60;3.17;;;;;;;6.75;77.60;100880.09;5003050;28;20058;-55
2020/12/23 04:16:28;;;;;;;12.65;2.70;;;;;;;7.00;76.65;100889.63;5005427;28;20544;-56
2020/12/23 04:18:54;;;;;;;12.43;2.10;;;;;;;6.85;78.37;100885.84;5006383;28;20090;-54
2020/12/23 04:21:21;;;;;;;13.18;2.53;;;;;;;6.74;79.02;100877.56;5008022;28;20129;-56
2020/12/23 04:23:48;;;;;;;16.55;2.17;;;;;;;7.05;78.86;100885.06;5003588;28;20050;-54
2020/12/23 04:26:15;;;;;;;18.83;2.33;;;;;;;7.02;78.27;100885.16;4989491;28;20104;-57
2020/12/23 04:28:41;;;;;;;9.02;1.88;;;;;;;6.93;78.20;100881.16;5005607;28;20053;-56
2020/12/23 04:31:08;;;;;;;16.25;2.78;;;;;;;6.95;78.24;100886.34;5008347;28;20068;-54
2020/12/23 04:33:35;;;;;;;10.00;1.85;;;;;;;6.92;78.18;100892.53;5005125;28;20120;-54
2020/12/23 04:36:02;;;;;;;18.15;2.30;;;;;;;7.03;78.40;100902.59;5008626;28;20054;-57
2020/12/23 04:38:29;;;;;;;16.13;2.83;;;;;;;6.96;78.66;100901.97;5006264;28;20058;-58
2020/12/23 04:40:56;;;;;;;8.93;2.35;;;;;;;6.87;78.25;100899.72;5008253;28;20578;-55
2020/12/23 04:43:23;;;;;;;16.88;2.03;;;;;;;6.99;78.10;100893.16;5004594;28;20057;-55
2020/12/23 04:45:50;;;;;;;17.15;2.13;;;;;;;7.23;78.72;100899.16;5007755;28;20049;-58
2020/12/23 04:48:24;;;;;;;25.10;2.45;;;;;;;7.14;78.81;100903.00;5006464;28;20053;-55
2020/12/23 04:50:54;;;;;;;19.27;2.25;;;;;;;6.95;79.44;100892.44;5005793;28;20133;-55
2020/12/23 04:53:23;;;;;;;10.98;1.80;;;;;;;7.09;79.45;100890.09;4985289;28;20054;-57
2020/12/23 04:55:49;;;;;;;18.38;2.30;;;;;;;6.95;78.57;100891.56;4991318;28;20062;-55
2020/12/23 04:58:17;;;;;;;18.58;2.13;;;;;;;7.04;78.66;100888.59;5002352;28;20058;-57
2020/12/23 05:00:44;;;;;;;17.30;2.10;;;;;;;6.96;79.15;100883.66;5007807;28;20559;-51
2020/12/23 05:03:11;;;;;;;11.25;2.38;;;;;;;6.59;79.53;100876.41;5001989;28;20069;-56
2020/12/23 05:05:38;;;;;;;16.92;2.40;;;;;;;6.58;79.90;100883.41;5006829;28;20060;-57
2020/12/23 05:08:04;;;;;;;25.25;2.30;;;;;;;6.52;80.23;100877.53;5003626;28;20063;-54
2020/12/23 05:10:31;;;;;;;10.85;2.00;;;;;;;6.63;80.15;100882.38;5008068;28;20065;-55
2020/12/23 05:12:58;;;;;;;20.25;2.10;;;;;;;6.88;80.57;100880.47;5005062;28;20042;-53
2020/12/23 05:15:25;;;;;;;16.98;3.20;;;;;;;6.73;80.13;100886.31;5008835;28;20177;-57
2020/12/23 05:17:52;;;;;;;13.32;1.77;;;;;;;6.63;81.11;100895.44;5005133;28;20058;-53
2020/12/23 05:20:18;;;;;;;16.88;2.22;;;;;;;6.85;80.45;100898.94;5005739;28;20168;-58
2020/12/23 05:22:51;;;;;;;23.80;2.60;;;;;;;6.97;81.30;100892.34;5006218;28;20736;-56
2020/12/23 05:25:18;;;;;;;13.50;2.22;;;;;;;6.90;80.66;100891.75;5006253;28;20053;-56
2020/12/23 05:27:50;;;;;;;27.15;2.90;;;;;;;6.92;81.17;100889.91;5006415;28;20056;-55
2020/12/23 05:30:20;;;;;;;14.73;2.03;;;;;;;6.76;80.61;100897.53;5003244;28;20068;-54
2020/12/23 05:32:47;;;;;;;18.15;3.50;;;;;;;6.72;80.49;100898.56;4999443;28;20098;-53
2020/12/23 05:35:15;;;;;;;8.20;1.77;;;;;;;6.74;81.74;100888.88;5005886;28;20394;-53
2020/12/23 05:37:42;;;;;;;10.45;2.00;;;;;;;6.72;80.53;100887.25;5006282;28;20757;-56
2020/12/23 05:40:09;;;;;;;13.02;2.28;;;;;;;6.73;80.69;100879.31;5003150;28;20072;-53
2020/12/23 05:42:38;;;;;;;12.23;2.08;;;;;;;6.91;80.87;100880.38;4984900;28;20376;-56
2020/12/23 05:45:06;;;;;;;19.58;2.03;;;;;;;7.12;80.07;100878.66;5007094;28;20054;-56
2020/12/23 05:47:33;;;;;;;10.82;2.03;;;;;;;7.11;79.99;100876.94;5005911;28;20057;-57
2020/12/23 05:49:59;;;;;;;18.70;2.08;;;;;;;7.09;79.08;100890.09;5001629;28;20058;-54
2020/12/23 05:52:26;;;;;;;12.68;2.85;;;;;;;6.95;79.41;100886.34;5005325;28;20050;-54
2020/12/23 05:54:53;;;;;;;16.80;2.58;;;;;;;6.82;80.11;100896.44;5002144;28;20586;-55
2020/12/23 05:57:20;;;;;;;14.82;2.55;;;;;;;6.94;82.22;100890.72;4985271;28;20047;-55
2020/12/23 05:59:47;;;;;;;18.77;2.13;;;;;;;6.94;81.13;100889.88;5001495;28;20058;-56
2020/12/23 06:02:14;;;;;;;16.77;2.45;;;;;;;6.91;81.24;100890.84;5005527;28;20058;-52
2020/12/23 06:04:44;;;;;;;16.55;1.98;;;;;;;7.09;80.29;100887.47;4988066;28;20054;-53
2020/12/23 06:07:11;;;;;;;11.88;1.80;;;;;;;7.07;80.59;100886.72;5005950;28;20062;-57
2020/12/23 06:09:48;;;;;;;17.98;2.40;;;;;;;7.08;79.53;100890.19;5004205;28;20138;-56
2020/12/23 06:12:22;;;;;;;12.13;1.90;;;;;;;6.83;80.89;100880.66;5002290;28;20069;-55
2020/12/23 06:14:56;;;;;;;14.60;1.80;;;;;;;6.66;81.17;100890.06;5002306;28;20112;-54
2020/12/23 06:17:24;;;;;;;11.02;2.05;;;;;;;6.55;81.55;100887.88;5005024;28;20085;-53
2020/12/23 06:19:56;;;;;;;20.48;2.08;;;;;;;6.50;82.43;100887.22;5002507;28;20050;-54
2020/12/23 06:22:26;;;;;;;18.75;2.67;;;;;;;6.60;82.52;100885.94;5001223;28;20060;-55
2020/12/23 06:24:52;;;;;;;21.52;2.47;;;;;;;6.55;82.33;100882.66;5005285;28;20054;-56
2020/12/23 06:27:19;;;;;;;22.80;2.50;;;;;;;6.57;82.63;100878.19;5004271;28;20657;-58
2020/12/23 06:29:48;;;;;;;18.77;2.67;;;;;;;6.69;82.61;100880.34;5004037;28;20054;-61
2020/12/23 06:32:22;;;;;;;15.85;1.88;;;;;;;6.68;82.28;100878.66;5005314;28;20050;-58
2020/12/23 06:34:59;;;;;;;10.15;2.08;;;;;;;6.82;81.63;100881.59;4996314;28;20526;-56
2020/12/23 06:37:29;;;;;;;20.25;2.47;;;;;;;6.94;81.29;100882.03;4998773;28;20057;-56
2020/12/23 06:39:56;;;;;;;14.48;2.47;;;;;;;6.87;80.85;100884.03;4983177;28;20533;-55
2020/12/23 06:42:25;;;;;;;27.50;2.70;;;;;;;6.91;81.68;100900.47;5004965;28;20042;-54
2020/12/23 06:45:04;;;;;;;14.18;2.35;;;;;;;6.69;83.49;100895.19;5004991;28;20058;-57
2020/12/23 06:47:33;;;;;;;15.02;2.30;;;;;;;7.03;83.02;100897.38;5005579;28;20088;-55
2020/12/23 06:50:12;;;;;;;16.77;2.30;;;;;;;7.11;82.27;100897.88;4997688;28;20050;-54
2020/12/23 06:52:43;;;;;;;21.08;2.72;;;;;;;6.98;82.01;100896.66;4985592;28;20059;-56
2020/12/23 06:55:18;;;;;;;15.15;2.33;;;;;;;6.82;82.29;100896.44;5001369;28;20104;-55
2020/12/23 06:57:44;;;;;;;15.83;3.20;;;;;;;6.72;82.80;100889.84;5005315;28;20057;-55
2020/12/23 07:00:21;;;;;;;19.20;3.03;;;;;;;6.54;82.85;100892.28;5000444;28;20474;-56
2020/12/23 07:02:49;;;;;;;14.60;2.40;;;;;;;6.80;81.81;100888.66;4996977;28;20548;-55
2020/12/23 07:05:22;;;;;;;16.20;2.65;;;;;;;6.99;81.80;100887.94;4987661;28;20059;-56
2020/12/23 07:07:51;;;;;;;13.40;2.30;;;;;;;6.99;81.45;100887.94;5005314;28;20062;-56
2020/12/23 07:10:22;;;;;;;23.90;3.97;;;;;;;7.02;81.85;100895.63;5008767;28;20474;-56
2020/12/23 07:12:59;;;;;;;25.85;2.72;;;;;;;6.94;82.57;100888.09;4991252;28;20046;-59
2020/12/23 07:15:31;;;;;;;13.13;3.20;;;;;;;7.10;81.79;100886.56;5009199;28;20133;-55
2020/12/23 07:18:02;;;;;;;22.35;2.38;;;;;;;7.12;81.00;100888.28;4989261;28;20054;-57
2020/12/23 07:20:44;;;;;;;12.38;2.45;;;;;;;7.03;81.31;100902.59;5008321;28;20108;-54
2020/12/23 07:23:12;;;;;;;22.10;2.97;;;;;;;6.93;81.76;100903.84;5006454;28;20073;-56
2020/12/23 07:25:49;;;;;;;27.88;3.17;;;;;;;6.84;83.31;100900.72;5009833;28;20109;-54
2020/12/23 07:28:18;;;;;;;19.85;2.75;;;;;;;6.72;83.86;100908.19;5007085;28;21002;-55
2020/12/23 07:30:45;;;;;;;19.83;3.08;;;;;;;6.79;83.99;100902.63;5010842;28;20084;-54
2020/12/23 07:33:16;;;;;;;27.60;2.70;;;;;;;6.85;82.82;100907.63;5006227;28;20532;-50
2020/12/23 07:35:54;;;;;;;20.60;2.97;;;;;;;6.91;82.61;100913.53;5009107;28;20060;-58
2020/12/23 07:38:22;;;;;;;19.92;3.15;;;;;;;6.97;82.01;100911.53;5003076;28;21059;-55
2020/12/23 07:40:53;;;;;;;27.17;4.00;;;;;;;7.13;81.58;100916.16;4991865;28;20054;-54
2020/12/23 07:43:20;;;;;;;28.80;4.00;;;;;;;7.15;81.69;100906.47;4988208;28;20054;-56
2020/12/23 07:45:47;;;;;;;21.38;3.80;;;;;;;7.32;81.24;100914.50;5009567;28;20165;-56
2020/12/23 07:48:19;;;;;;;18.40;3.38;;;;;;;7.10;82.01;100919.75;4985362;28;20065;-57
2020/12/23 07:50:53;;;;;;;17.60;3.45;;;;;;;6.94;83.27;100911.66;5007629;28;20116;-58
2020/12/23 07:53:22;;;;;;;25.38;3.80;;;;;;;6.96;82.55;100917.69;5002191;28;20069;-54
2020/12/23 07:56:01;;;;;;;32.33;3.92;;;;;;;6.91;83.72;100922.25;5009298;28;20136;-57
2020/12/23 07:58:28;;;;;;;14.15;3.25;;;;;;;6.99;83.02;100925.41;5002437;28;20054;-54
2020/12/23 08:00:55;;;;;;;18.50;3.38;;;;;;;6.94;83.07;100916.91;5008301;28;20466;-51
2020/12/23 08:03:29;;;;;;;20.55;3.55;;;;;;;6.95;82.39;100915.97;5022086;23;20052;-59
2020/12/23 08:06:07;;;;;;;20.70;3.83;;;;;;;7.01;82.25;100910.50;5016515;28;20054;-60
2020/12/23 08:08:34;;;;;;;24.55;4.72;;;;;;;7.01;82.22;100915.72;5022721;28;20054;-59
2020/12/23 08:11:11;;;;;;;17.73;3.35;;;;;;;6.97;82.44;100914.13;5014385;28;20053;-60
2020/12/23 08:13:38;;;;;;;19.45;3.50;;;;;;;7.16;81.31;100916.03;5022873;28;20049;-59
2020/12/23 08:16:10;;;;;;;18.17;4.30;;;;;;;7.16;81.17;100922.16;5008200;28;20049;-57
2020/12/23 08:18:38;;;;;;;21.83;4.07;;;;;;;7.20;81.33;100912.38;5025989;28;20064;-59
2020/12/23 08:21:17;;;;;;;20.02;3.78;;;;;;;7.30;80.66;100905.88;4999311;28;20650;-58
2020/12/23 08:23:46;;;;;;;18.63;3.97;;;;;;;7.29;81.04;100896.28;5009973;28;20065;-57
2020/12/23 08:26:13;;;;;;;27.27;3.85;;;;;;;7.22;81.15;100903.56;5025062;28;20085;-57
2020/12/23 08:28:46;;;;;;;18.35;3.58;;;;;;;7.05;81.80;100906.00;5013753;28;20058;-59
2020/12/23 08:31:25;;;;;;;17.30;3.40;;;;;;;7.18;80.61;100916.84;5011595;28;20135;-59
2020/12/23 08:33:57;;;;;;;24.70;3.17;;;;;;;7.21;80.50;100914.94;4983911;28;20056;-62
2020/12/23 08:36:24;;;;;;;22.00;3.60;;;;;;;7.25;80.62;100920.88;4996368;28;20220;-62
2020/12/23 08:38:52;;;;;;;20.08;3.00;;;;;;;7.41;79.99;100921.97;4993759;28;20065;-59
2020/12/23 08:41:20;;;;;;;16.77;3.67;;;;;;;7.28;80.07;100921.63;5020536;28;20053;-59
2020/12/23 08:43:48;;;;;;;25.90;4.03;;;;;;;7.39;80.39;100928.22;4987257;28;20053;-57
2020/12/23 08:46:26;;;;;;;11.43;3.20;;;;;;;7.47;79.43;100929.56;5019868;28;20064;-57
2020/12/23 08:48:54;;;;;;;18.85;3.42;;;;;;;7.48;80.12;100930.47;5021304;28;20232;-61
2020/12/23 08:51:22;;;;;;;25.42;3.88;;;;;;;7.54;80.13;100927.56;5019267;28;20049;-60
2020/12/23 08:53:52;;;;;;;25.08;3.72;;;;;;;7.54;79.15;100922.34;5020423;28;20045;-58
2020/12/23 08:56:27;;;;;;;25.35;3.50;;;;;;;7.52;79.18;100908.44;5018402;28;20050;-61
2020/12/23 08:59:01;;;;;;;18.10;3.88;;;;;;;7.55;79.50;100910.94;5016917;28;20066;-59
2020/12/23 09:01:29;;;;;;;18.13;3.28;;;;;;;7.62;79.16;100904.53;5009640;28;20054;-60
2020/12/23 09:04:09;;;;;;;17.42;3.42;;;;;;;7.59;78.27;100900.25;4999890;28;20510;-58
2020/12/23 09:06:40;;;;;;;24.40;4.18;;;;;;;7.57;78.18;100896.88;5018625;28;20077;-58
2020/12/23 09:09:15;;;;;;;17.42;3.25;;;;;;;7.68;78.55;100898.19;5019743;28;20050;-62
2020/12/23 09:11:49;;;;;;;26.67;4.13;;;;;;;7.67;78.90;100897.31;5023860;28;20164;-58
2020/12/23 09:14:16;;;;;;;20.40;2.95;;;;;;;7.73;78.18;100906.69;5027248;28;20042;-60
2020/12/23 09:17:08;;;;;;;19.75;3.65;;;;;;;7.72;77.52;100911.06;5038946;28;20053;-60
2020/12/23 09:19:48;;;;;;;15.60;3.30;;;;;;;7.61;78.55;100906.31;5016748;28;20072;-60
2020/12/23 09:22:28;;;;;;;20.48;3.47;;;;;;;7.53;77.93;100911.00;5022134;28;20054;-60
2020/12/23 09:25:13;;;;;;;24.92;4.40;;;;;;;7.74;78.86;100905.75;5026609;28;20061;-60
2020/12/23 09:27:41;;;;;;;15.77;3.30;;;;;;;7.83;78.15;100908.00;5018257;28;20085;-60
2020/12/23 09:30:09;;;;;;;17.70;2.80;;;;;;;7.74;77.75;100900.53;5005990;28;20056;-60
2020/12/23 09:32:49;;;;;;;22.02;4.45;;;;;;;7.72;77.56;100897.13;5009356;28;20051;-62
2020/12/23 09:35:18;;;;;;;15.57;2.92;;;;;;;7.76;78.02;100885.59;5010202;28;20153;-59
2020/12/23 09:37:50;;;;;;;16.17;3.20;;;;;;;7.75;78.07;100874.28;5018882;28;20062;-58
2020/12/23 09:40:17;;;;;;;24.85;4.18;;;;;;;7.94;77.61;100876.94;5022259;28;20136;-59
2020/12/23 09:42:43;;;;;;;15.18;3.03;;;;;;;8.09;77.88;100868.38;4990213;28;20064;-58
2020/12/23 09:45:11;;;;;;;22.85;3.72;;;;;;;8.13;76.86;100866.47;5020648;28;20060;-61
2020/12/23 09:47:42;;;;;;;12.10;3.63;;;;;;;8.04;77.10;100870.34;5021131;28;20115;-57
2020/12/23 09:50:09;;;;;;;15.13;2.63;;;;;;;7.96;77.90;100869.00;5025282;28;20115;-54
2020/12/23 09:52:36;;;;;;;17.45;3.55;;;;;;;8.10;77.45;100857.00;5016322;28;20053;-58
2020/12/23 09:55:04;;;;;;;13.50;2.30;;;;;;;8.27;76.82;100855.34;5016830;28;20510;-59
2020/12/23 09:57:31;;;;;;;22.13;3.40;;;;;;;8.34;76.68;100857.63;5018510;28;20057;-58
2020/12/23 09:59:58;;;;;;;20.10;4.10;;;;;;;8.37;75.65;100848.78;5020492;28;20056;-57
2020/12/23 10:02:24;;;;;;;16.00;3.38;;;;;;;8.38;76.10;100842.66;5025481;28;20180;-57
2020/12/23 10:04:51;;;;;;;12.13;2.90;;;;;;;8.40;75.72;100846.03;5022860;28;20057;-60
2020/12/23 10:07:21;;;;;;;21.92;4.20;;;;;;;8.36;77.39;100845.31;5022230;28;20388;-60
2020/12/23 10:09:52;;;;;;;19.42;2.78;;;;;;;8.27;76.44;100843.09;5023374;28;20268;-58
2020/12/23 10:12:22;;;;;;;13.40;3.95;;;;;;;8.34;77.13;100841.06;5026163;28;20057;-59
2020/12/23 10:14:50;;;;;;;14.20;2.55;;;;;;;8.47;76.30;100844.00;5011951;28;20080;-59
2020/12/23 10:17:17;;;;;;;13.85;3.03;;;;;;;8.50;75.71;100839.44;5020844;28;20080;-60
2020/12/23 10:19:44;;;;;;;20.65;4.57;;;;;;;8.46;76.02;100837.88;5012139;28;20271;-62
2020/12/23 10:22:11;;;;;;;11.63;2.65;;;;;;;8.42;76.41;100843.34;4998776;28;20046;-60
2020/12/23 10:24:38;;;;;;;15.82;3.50;;;;;;;8.15;77.27;100841.06;5022943;28;20059;-58
2020/12/23 10:27:05;;;;;;;20.83;3.67;;;;;;;8.23;76.51;100830.19;5020057;28;20088;-59
2020/12/23 10:29:32;;;;;;;16.25;3.42;;;;;;;8.14;76.98;100831.47;5010709;28;20208;-57
2020/12/23 10:31:59;;;;;;;17.13;3.42;;;;;;;8.15;77.33;100817.44;5012706;28;20453;-57
2020/12/23 10:34:25;;;;;;;14.57;3.35;;;;;;;8.19;77.07;100815.50;5019957;28;20409;-63
2020/12/23 10:36:52;;;;;;;15.52;3.80;;;;;;;8.18;76.74;100814.66;5014085;28;20471;-61
2020/12/23 10:39:19;;;;;;;12.60;3.25;;;;;;;8.15;77.44;100817.44;5022975;28;20103;-59
2020/12/23 10:41:46;;;;;;;14.90;3.17;;;;;;;8.01;77.92;100832.94;4996929;28;20065;-60
2020/12/23 10:44:12;;;;;;;14.05;3.55;;;;;;;8.19;77.98;100816.38;5015177;28;20050;-59
2020/12/23 10:46:39;;;;;;;21.83;3.42;;;;;;;8.27;77.53;100818.63;5021542;28;20152;-60
2020/12/23 10:49:06;;;;;;;15.75;3.58;;;;;;;8.27;77.10;100818.63;5009594;28;20541;-61
2020/12/23 10:51:33;;;;;;;15.93;3.80;;;;;;;8.32;77.37;100812.25;5004151;28;20140;-61
2020/12/23 10:53:59;;;;;;;12.07;3.50;;;;;;;8.19;77.22;100798.00;5000865;28;20532;-62
2020/12/23 10:56:26;;;;;;;13.85;3.38;;;;;;;8.08;78.79;100797.66;5020297;28;20418;-58
2020/12/23 10:58:53;;;;;;;18.38;3.80;;;;;;;8.12;78.41;100793.97;5029008;28;20057;-60
2020/12/23 11:01:20;;;;;;;20.65;3.83;;;;;;;8.06;78.79;100791.63;5011403;28;20057;-60
2020/12/23 11:03:47;;;;;;;16.90;3.50;;;;;;;8.12;79.12;100789.59;5014928;28;20049;-63
2020/12/23 11:06:14;;;;;;;25.67;3.60;;;;;;;8.09;79.31;100783.63;5030848;28;20071;-60
2020/12/23 11:08:41;;;;;;;12.90;3.25;;;;;;;8.05;79.28;100768.94;5021016;28;20115;-59
2020/12/23 11:11:13;;;;;;;20.25;4.38;;;;;;;8.11;79.87;100766.06;5027102;28;20060;-64
2020/12/23 11:13:42;;;;;;;19.23;3.33;;;;;;;8.06;80.66;100762.78;5019730;28;20054;-57
2020/12/23 11:16:13;;;;;;;17.15;3.83;;;;;;;8.08;80.35;100759.19;5034899;28;20164;-61
2020/12/23 11:18:40;;;;;;;15.05;3.47;;;;;;;7.98;80.61;100757.91;5020923;28;20053;-57
2020/12/23 11:21:08;;;;;;;18.98;4.28;;;;;;;7.91;81.48;100753.84;5009390;28;20072;-60
2020/12/23 11:23:35;;;;;;;16.40;3.65;;;;;;;7.99;80.95;100756.13;5005317;28;20618;-61
2020/12/23 11:26:02;;;;;;;19.30;3.58;;;;;;;7.91;81.15;100745.16;5016402;28;20157;-62
2020/12/23 11:28:31;;;;;;;15.80;3.55;;;;;;;8.04;81.33;100743.66;5002934;28;20422;-59
2020/12/23 11:31:03;;;;;;;13.00;3.65;;;;;;;8.23;80.66;100734.00;5004004;28;20085;-57